Time;durP1;ratioP1;P1;durP2;ratioP2;P2;SDS_P1;SDS_P2;PMS_P1;PMS_P2;Temp;Humidity;BMP_temperature;BMP_pressure;BME280_temperature;BME280_humidity;BME280_pressure;Samples;Min_cycle;Max_cycle;Signal;HPM_P1;HPM_P2
2022/03/26 00:08:34;;;;;;;57.50;28.70;;;;;;;5.22;49.15;99583.02;432766;1270;98377;-42
2022/03/26 00:18:42;;;;;;;57.40;28.60;;;;;;;5.23;49.24;99576.77;432297;1268;110919;-42
2022/03/26 00:28:49;;;;;;;60.50;30.50;;;;;;;5.22;49.37;99572.08;432733;1270;108933;-42
2022/03/26 00:38:55;;;;;;;65.00;30.60;;;;;;;5.21;49.49;99560.68;432522;1270;99308;-42
2022/03/26 00:49:03;;;;;;;62.20;30.00;;;;;;;5.18;49.66;99558.09;432528;1270;111383;-42
2022/03/26 00:59:10;;;;;;;73.30;33.50;;;;;;;5.13;49.61;99557.83;432366;1270;108878;-41
2022/03/26 01:09:17;;;;;;;68.40;28.30;;;;;;;5.10;49.87;99552.20;432971;1270;99251;-42
2022/03/26 01:19:24;;;;;;;65.80;29.00;;;;;;;5.12;50.09;99540.63;432601;1268;112427;-41
2022/03/26 01:29:32;;;;;;;63.80;29.60;;;;;;;5.15;50.36;99541.49;432592;1270;108874;-43
2022/03/26 01:39:39;;;;;;;81.90;32.00;;;;;;;5.14;50.37;99537.77;432519;1270;99291;-41
2022/03/26 01:49:47;;;;;;;67.10;28.30;;;;;;;5.09;50.64;99534.62;432648;1270;112599;-41
2022/03/26 01:59:54;;;;;;;60.70;30.50;;;;;;;5.01;50.72;99526.34;432486;1270;108581;-41
2022/03/26 02:10:01;;;;;;;64.80;29.30;;;;;;;4.89;51.16;99522.33;432405;1270;99280;-42
2022/03/26 02:20:12;;;;;;;65.90;31.00;;;;;;;4.79;51.10;99519.15;432661;1270;112382;-41
2022/03/26 02:30:20;;;;;;;67.90;31.60;;;;;;;4.62;51.40;99520.28;432436;1270;108297;-41
2022/03/26 02:50:48;;;;;;;64.20;32.40;;;;;;;4.45;51.71;99510.41;431077;1274;112411;-41
2022/03/26 03:00:59;;;;;;;73.30;32.40;;;;;;;4.32;52.04;99512.86;431663;1273;109575;-45
2022/03/26 03:11:08;;;;;;;64.40;31.30;;;;;;;4.23;52.40;99508.59;431722;1274;99414;-42
2022/03/26 03:21:15;;;;;;;63.80;31.20;;;;;;;4.13;52.66;99504.10;431754;1274;112348;-41
2022/03/26 03:31:22;;;;;;;75.30;33.70;;;;;;;4.06;52.70;99503.98;431524;1274;109283;-42
2022/03/26 03:41:30;;;;;;;77.50;32.90;;;;;;;3.95;53.15;99502.38;431650;1272;99931;-42
2022/03/26 03:51:37;;;;;;;72.30;33.30;;;;;;;3.84;53.37;99481.62;432175;1272;112469;-41
2022/03/26 04:01:45;;;;;;;80.20;34.60;;;;;;;3.71;53.67;99472.33;432232;1272;108817;-41
2022/03/26 04:11:53;;;;;;;78.60;34.80;;;;;;;3.62;53.81;99465.64;432258;1272;99266;-43
2022/03/26 04:22:00;;;;;;;84.10;34.70;;;;;;;3.53;54.30;99455.67;432176;1272;112226;-42
2022/03/26 04:32:10;;;;;;;66.70;33.60;;;;;;;3.44;54.78;99451.30;432121;1272;109096;-41
2022/03/26 04:42:17;;;;;;;77.90;35.80;;;;;;;3.52;55.15;99453.02;432215;1272;98024;-42
2022/03/26 04:52:24;;;;;;;74.00;35.70;;;;;;;3.56;55.08;99449.95;432113;1272;112454;-41
2022/03/26 05:02:31;;;;;;;84.80;36.60;;;;;;;3.54;55.12;99450.67;432075;1272;107733;-41
2022/03/26 05:12:38;;;;;;;87.20;38.40;;;;;;;3.65;55.52;99452.46;432066;1272;99273;-40
2022/03/26 05:22:47;;;;;;;85.70;39.20;;;;;;;3.91;55.54;99449.27;432219;1272;112593;-42
2022/03/26 05:32:55;;;;;;;94.70;38.70;;;;;;;4.36;55.61;99465.25;432477;1272;109009;-40
2022/03/26 05:53:08;;;;;;;86.40;40.90;;;;;;;6.15;55.44;99457.19;432171;1272;113058;-43
2022/03/26 06:03:14;;;;;;;78.90;40.20;;;;;;;7.17;54.77;99454.30;432240;1272;98368;-42
2022/03/26 06:13:22;;;;;;;72.90;37.60;;;;;;;8.19;54.15;99447.04;432338;1272;99270;-41
2022/03/26 06:23:29;;;;;;;66.00;36.70;;;;;;;9.34;53.25;99449.17;432316;1272;112515;-41
2022/03/26 06:33:36;;;;;;;65.90;35.20;;;;;;;10.08;52.36;99446.20;432244;1272;108479;-45
2022/03/26 06:43:44;;;;;;;71.70;35.90;;;;;;;10.81;51.35;99443.13;432135;1273;99343;-42
2022/03/26 06:53:52;;;;;;;66.40;34.90;;;;;;;11.59;50.36;99445.65;432353;1272;108002;-42
2022/03/26 07:03:59;;;;;;;66.50;34.50;;;;;;;12.44;49.56;99442.85;432196;1274;99369;-41
2022/03/26 07:14:05;;;;;;;62.10;31.90;;;;;;;13.09;48.37;99438.80;432221;1273;110314;-40
2022/03/26 07:24:12;;;;;;;56.60;30.10;;;;;;;13.65;46.99;99433.58;432196;1274;108959;-41
2022/03/26 07:34:20;;;;;;;48.90;28.60;;;;;;;13.42;45.60;99437.48;431957;1272;99287;-41
2022/03/26 07:44:26;;;;;;;61.00;28.70;;;;;;;13.38;46.06;99439.66;431949;1272;108886;-42
2022/03/26 07:54:36;;;;;;;51.80;28.60;;;;;;;13.57;46.27;99425.73;432275;1274;98875;-41
2022/03/26 08:04:45;;;;;;;61.60;31.10;;;;;;;14.06;46.02;99411.06;432158;1273;112479;-42
2022/03/26 08:14:52;;;;;;;57.70;32.10;;;;;;;14.46;45.36;99403.30;432175;1272;108843;-42
2022/03/26 08:24:59;;;;;;;59.40;33.80;;;;;;;14.82;44.75;99401.46;432249;1272;98879;-42
2022/03/26 08:35:07;;;;;;;67.40;30.50;;;;;;;15.14;43.95;99400.38;432144;1272;108807;-40
2022/03/26 08:45:14;;;;;;;57.30;28.80;;;;;;;15.29;42.93;99406.70;432184;1272;98061;-41
2022/03/26 08:55:23;;;;;;;50.50;23.70;;;;;;;15.28;42.21;99404.81;432228;1272;112428;-41
2022/03/26 09:05:31;;;;;;;50.00;24.00;;;;;;;15.35;41.98;99397.63;431371;1273;288385;-45
2022/03/26 09:15:38;;;;;;;48.60;23.80;;;;;;;15.70;41.55;99377.67;432271;1272;98758;-44
2022/03/26 09:25:46;;;;;;;49.50;22.60;;;;;;;15.89;40.49;99370.16;432126;1272;108894;-41
2022/03/26 09:35:53;;;;;;;58.50;24.30;;;;;;;15.74;40.20;99362.69;432383;1272;99310;-41
2022/03/26 09:46:06;;;;;;;45.00;21.60;;;;;;;15.96;40.35;99351.25;432109;1271;112433;-40
2022/03/26 09:56:13;;;;;;;41.30;20.00;;;;;;;16.16;39.36;99341.64;432020;1272;108946;-44
2022/03/26 10:06:26;;;;;;;34.30;17.90;;;;;;;16.24;39.22;99331.18;432098;1272;99296;-44
2022/03/26 10:16:33;;;;;;;39.70;15.50;;;;;;;16.37;38.11;99331.54;431983;1272;108927;-40
2022/03/26 10:26:39;;;;;;;40.10;12.40;;;;;;;16.36;37.59;99338.64;432198;1272;98040;-42
2022/03/26 10:36:48;;;;;;;34.90;15.40;;;;;;;16.30;37.32;99325.01;432200;1272;112090;-42
2022/03/26 10:46:57;;;;;;;53.90;14.40;;;;;;;16.52;37.41;99315.77;432116;1272;107840;-41
2022/03/26 10:57:05;;;;;;;25.20;14.80;;;;;;;16.57;37.16;99312.05;431768;1274;99365;-42
2022/03/26 11:07:13;;;;;;;38.70;15.60;;;;;;;16.91;36.77;99300.31;432121;1272;112422;-42
2022/03/26 11:17:23;;;;;;;22.70;10.60;;;;;;;16.89;36.01;99293.95;431645;1274;108835;-41
2022/03/26 11:37:50;;;;;;;28.90;11.10;;;;;;;17.10;35.33;99275.36;432162;1272;108823;-41
2022/03/26 11:58:27;;;;;;;24.30;9.30;;;;;;;17.16;33.97;99243.02;431981;1272;112469;-40
2022/03/26 12:18:45;;;;;;;14.20;7.40;;;;;;;17.53;34.22;99214.77;431952;1272;99656;-42
2022/03/26 12:28:55;;;;;;;26.00;8.30;;;;;;;17.69;33.76;99206.95;432069;1272;108852;-41
2022/03/26 12:39:04;;;;;;;16.40;7.70;;;;;;;17.67;33.73;99188.70;431913;1272;99270;-42
2022/03/26 12:59:22;;;;;;;21.90;7.00;;;;;;;16.94;35.74;99177.19;432005;1272;108996;-41
2022/03/26 13:19:36;;;;;;;11.30;4.70;;;;;;;16.08;37.35;99179.82;431957;1272;107129;-42
2022/03/26 13:29:44;;;;;;;12.40;6.10;;;;;;;15.72;38.05;99178.60;430878;1274;99310;-44
2022/03/26 13:39:56;;;;;;;11.20;5.90;;;;;;;15.61;38.83;99174.45;431884;1272;112340;-41
2022/03/26 13:50:04;;;;;;;11.50;5.40;;;;;;;15.55;39.21;99171.70;432027;1272;107068;-41
2022/03/26 14:00:13;;;;;;;7.90;5.50;;;;;;;15.46;39.84;99168.88;431899;1272;99385;-41
2022/03/26 14:10:29;;;;;;;19.80;7.70;;;;;;;15.21;40.39;99172.29;432144;1272;108722;-42
2022/03/26 14:20:37;;;;;;;14.10;6.00;;;;;;;14.95;41.05;99177.90;432100;1274;99936;-40
2022/03/26 14:30:46;;;;;;;14.80;7.20;;;;;;;14.79;41.61;99179.89;432240;1273;112086;-41
2022/03/26 14:40:54;;;;;;;14.50;7.80;;;;;;;14.66;42.36;99175.92;431692;1274;109352;-42
2022/03/26 14:51:01;;;;;;;14.40;8.00;;;;;;;14.48;43.55;99175.08;431929;1273;99270;-41
2022/03/26 15:01:08;;;;;;;18.40;10.00;;;;;;;14.22;44.81;99183.46;431862;1273;108828;-44
2022/03/26 15:11:15;;;;;;;20.40;9.30;;;;;;;13.98;45.63;99190.70;432144;1274;99382;-41
2022/03/26 15:31:29;;;;;;;28.70;13.10;;;;;;;13.63;47.24;99200.27;432036;1273;108785;-41
2022/03/26 15:41:39;;;;;;;26.40;12.10;;;;;;;13.44;48.75;99217.15;431933;1274;99273;-43
2022/03/26 15:51:44;;;;;;;;;;;;;;;13.21;50.36;99225.73;432108;1273;108666;-41
2022/03/26 16:11:57;;;;;;;23.50;13.80;;;;;;;12.62;54.63;99273.72;432167;1274;112883;-43
2022/03/26 16:22:03;;;;;;;23.90;14.90;;;;;;;12.02;58.84;99301.90;432024;1274;108907;-41
2022/03/26 16:32:08;;;;;;;36.30;22.90;;;;;;;11.59;61.52;99319.72;431829;1274;99240;-41
2022/03/26 16:42:15;;;;;;;44.40;27.10;;;;;;;10.89;65.18;99343.38;431790;1274;108954;-40
2022/03/26 16:52:21;;;;;;;41.40;24.60;;;;;;;10.11;66.94;99358.62;431768;1274;99289;-41
2022/03/26 17:02:27;;;;;;;51.70;28.80;;;;;;;9.73;68.63;99362.13;431728;1274;111156;-41
2022/03/26 17:12:34;;;;;;;45.90;28.60;;;;;;;9.53;68.50;99373.61;431886;1274;109059;-42
2022/03/26 17:22:41;;;;;;;57.20;30.90;;;;;;;9.45;68.01;99377.84;431971;1274;99296;-42
2022/03/26 17:32:48;;;;;;;72.40;41.60;;;;;;;9.38;67.71;99383.39;431944;1273;107686;-42
2022/03/26 17:42:55;;;;;;;60.70;32.00;;;;;;;9.38;67.46;99392.48;431805;1274;98344;-41
2022/03/26 17:53:03;;;;;;;54.90;29.90;;;;;;;9.39;67.81;99413.28;431806;1274;111484;-42
2022/03/26 18:03:10;;;;;;;49.70;29.40;;;;;;;9.41;68.64;99429.48;431768;1274;109004;-44
2022/03/26 18:13:17;;;;;;;48.00;27.30;;;;;;;9.34;68.95;99444.14;431854;1273;99337;-42
2022/03/26 18:23:24;;;;;;;34.00;20.10;;;;;;;9.30;69.02;99464.08;431869;1273;108674;-43
2022/03/26 18:33:31;;;;;;;30.70;16.30;;;;;;;9.25;68.18;99482.05;431921;1274;99293;-41
2022/03/26 18:43:39;;;;;;;32.40;16.10;;;;;;;9.08;67.65;99489.86;432002;1274;112116;-44
2022/03/26 18:53:46;;;;;;;26.40;14.90;;;;;;;8.90;67.60;99499.32;431996;1273;108712;-40
2022/03/26 19:03:53;;;;;;;23.10;12.60;;;;;;;8.82;67.69;99509.85;432003;1274;99267;-41
2022/03/26 19:14:00;;;;;;;22.10;12.70;;;;;;;8.65;67.14;99512.65;432066;1274;108899;-42
2022/03/26 19:24:10;;;;;;;27.70;13.90;;;;;;;8.32;66.77;99531.48;431916;1274;99107;-41
2022/03/26 19:34:16;;;;;;;;;;;;;;;8.04;66.53;99554.06;431970;1274;113074;-41
2022/03/26 19:44:23;;;;;;;23.60;13.00;;;;;;;7.82;66.47;99566.31;431874;1273;107777;-42
2022/03/26 19:54:30;;;;;;;27.70;14.70;;;;;;;7.59;66.42;99574.91;432059;1274;99289;-43
2022/03/26 20:04:37;;;;;;;34.50;18.30;;;;;;;7.37;67.19;99600.43;431917;1274;108803;-41
2022/03/26 20:24:51;;;;;;;17.70;11.10;;;;;;;7.32;67.26;99623.48;432275;1273;111092;-43
2022/03/26 20:34:59;;;;;;;24.80;13.80;;;;;;;7.35;67.86;99641.58;432060;1274;109065;-41
2022/03/26 20:45:07;;;;;;;30.40;17.10;;;;;;;7.34;68.43;99657.41;431804;1274;98057;-41
2022/03/26 20:55:15;;;;;;;22.00;12.50;;;;;;;7.32;68.58;99659.62;432141;1273;108880;-41
2022/03/26 21:05:22;;;;;;;23.70;13.40;;;;;;;7.30;69.10;99664.58;427874;1274;5448734;-41
2022/03/26 21:15:29;;;;;;;29.40;14.60;;;;;;;7.25;69.35;99677.50;431981;1274;112436;-43
2022/03/26 21:25:50;;;;;;;32.30;16.10;;;;;;;7.18;70.24;99692.55;432291;1273;108922;-41
2022/03/26 21:35:59;;;;;;;30.00;14.40;;;;;;;7.21;70.56;99711.41;432145;1274;99273;-40
2022/03/26 21:46:05;;;;;;;32.00;16.70;;;;;;;7.20;70.90;99730.46;431877;1274;108698;-42
2022/03/26 21:56:13;;;;;;;35.70;20.80;;;;;;;7.13;71.05;99747.65;432172;1274;98859;-41
2022/03/26 22:06:20;;;;;;;29.70;16.60;;;;;;;7.07;70.95;99769.18;431993;1274;112586;-41
2022/03/26 22:16:27;;;;;;;20.40;11.80;;;;;;;7.09;70.61;99777.75;432100;1274;107206;-42
2022/03/26 22:26:34;;;;;;;23.40;13.00;;;;;;;6.95;69.72;99792.02;432148;1274;99276;-44
2022/03/26 22:36:42;;;;;;;24.00;9.60;;;;;;;6.57;68.63;99800.45;432029;1274;108913;-44
2022/03/26 22:46:50;;;;;;;12.70;6.60;;;;;;;6.03;66.77;99812.85;432281;1273;99249;-42
2022/03/26 22:56:57;;;;;;;12.30;4.90;;;;;;;5.59;64.37;99830.70;432006;1273;112431;-42
2022/03/26 23:07:03;;;;;;;8.40;3.40;;;;;;;5.17;62.80;99838.22;432330;1274;108293;-43
2022/03/26 23:17:09;;;;;;;8.00;3.60;;;;;;;4.87;61.68;99851.63;432131;1274;99382;-41
2022/03/26 23:27:16;;;;;;;13.30;4.10;;;;;;;4.62;60.90;99865.45;432084;1274;99295;-43
2022/03/26 23:47:30;;;;;;;8.10;3.50;;;;;;;4.05;58.75;99897.56;432023;1274;108611;-42
2022/03/26 23:57:46;;;;;;;10.30;3.10;;;;;;;3.75;57.97;99908.48;432202;1274;99495;-42
